Georgetown, SC

3:25 AM EDT on August 31, 2015 (GMT -0400)
NERRS | | Change Station
CLOSE
Current Station
Personal Weather Station
Location: Georgetown, SC
Elevation: 2 ft
Nearby Weather Stations

Elev 2 ft 33.35 °N, 79.19 °W | Updated 40 minutes ago

Mostly Cloudy
Mostly Cloudy
79.0 °F
Feels Like 83 °F
N
6.0
Wind Variable Wind from SSE
Gusts 0.0 mph

Today
High -- | Low -- °F
--% Chance of Precip.
Yesterday
High -- | Low -- °F
Precip. -- in
6:50 AM 7:43 PM
Waning Gibbous, 96% visible
Pressure 30.08 in
Visibility 10.0 miles
Clouds Scattered Clouds 1800 ft
Scattered Clouds 7000 ft
Mostly Cloudy 10000 ft
Heat Index 83 °F
Dew Point 74.0 °F
Humidity 85%
Rainfall in
Snow Depth Not available.
UV 0 out of 12
Pollen 4.90 out of 12
Air Quality Not available.
Flu Activity Not available.
METAR KGGE 310655Z AUTO 00000KT 10SM SCT018 SCT070 BKN100 23/23 A3008 RMK AO2 LTG DSNT W
Pressure 30.08 in
Visibility 10.0 miles
Clouds Scattered Clouds 1800 ft
Scattered Clouds 7000 ft
Mostly Cloudy 10000 ft
Heat Index 83 °F
Dew Point 74.0 °F
Humidity 85%
Rainfall in
Snow Depth Not available.
UV 0 out of 12
Pollen 4.90 out of 12
Air Quality Not available.
Flu Activity Not available.
METAR KGGE 310655Z AUTO 00000KT 10SM SCT018 SCT070 BKN100 23/23 A3008 RMK AO2 LTG DSNT W

10-Day Weather Forecast

×

Almanac

Astronomy

Aug. 31, 2015 Rise Set
Actual Time
Civil Twilight
Nautical Twilight
Astronomical Twilight
Moon
Length of Visible Light
Length of Day
Tomorrow will be .
, % of the Moon is Illuminated

Today's Extremes

State Highs State Lows

Community

WunderPhotos

Upload Photos

1,851,220 photos uploaded!

WunderBlogs® & News

Nearby

Air Quality

  Air Quality AQ Index Pollutant
Not available.

Snow Depth

Station Depth Elevation

Earthquake Activity

City Distance Mag. Time & Date
Minimum magnitude displayed is 2.5.

Coastal Water Temperatures

Place Temperature

Stations

Nearby Weather Stations

Station Location Temp. Windchill Dew Point Humidity Wind Precip. Elev Updated Type